AAL221 KSAT-KCLT
Flight info
| Callsign | AAL221 |
|---|---|
| Flight time | N/A |
| Altitude | 37000 |
| Route | SNIDR1 MOLLR KH03G AEX WINAP STNGA BESTT JONZE5 |
| Aircraft | A20N/M-SDE2E3FGHIRWXY/LB1 |
Departure
| Time | 2026-05-09 03:00 |
|---|---|
| Airport | San Antonio International Airport (KSAT) |
Arrival
| Time | N/A |
|---|---|
| Airport | Charlotte Douglas International Airport (KCLT) |
| Time | Latitude | Longitude | Altitude | Speed | Heading |
|---|---|---|---|---|---|
| 2026-05-09 02:08 | 29.52916 | -98.47272 | 795 ft | 0 kts | 131° |
| 2026-05-09 02:42 | 29.52917 | -98.47273 | 799 ft | 2 kts | 131° |
| 2026-05-09 02:42 | 29.52931 | -98.47293 | 799 ft | 3 kts | 129° |
| 2026-05-09 02:42 | 29.52941 | -98.47315 | 800 ft | 4 kts | 82° |
| 2026-05-09 02:42 | 29.52932 | -98.47338 | 800 ft | 4 kts | 44° |
| 2026-05-09 02:43 | 29.52924 | -98.47346 | 800 ft | 0 kts | 41° |
| 2026-05-09 02:49 | 29.52950 | -98.47320 | 799 ft | 7 kts | 41° |
| 2026-05-09 02:49 | 29.52983 | -98.47286 | 799 ft | 8 kts | 41° |
| 2026-05-09 02:50 | 29.53025 | -98.47244 | 800 ft | 10 kts | 41° |
| 2026-05-09 02:50 | 29.53087 | -98.47222 | 800 ft | 9 kts | 333° |
| 2026-05-09 02:50 | 29.53131 | -98.47270 | 802 ft | 9 kts | 311° |
| 2026-05-09 02:50 | 29.53185 | -98.47340 | 799 ft | 18 kts | 311° |
| 2026-05-09 02:51 | 29.53271 | -98.47452 | 799 ft | 18 kts | 311° |
| 2026-05-09 02:51 | 29.53352 | -98.47556 | 799 ft | 17 kts | 311° |
| 2026-05-09 02:51 | 29.53434 | -98.47662 | 797 ft | 18 kts | 312° |
| 2026-05-09 02:51 | 29.53515 | -98.47765 | 799 ft | 16 kts | 312° |
| 2026-05-09 02:52 | 29.53587 | -98.47858 | 801 ft | 15 kts | 311° |
| 2026-05-09 02:52 | 29.53653 | -98.47944 | 802 ft | 13 kts | 311° |
| 2026-05-09 02:52 | 29.53708 | -98.48015 | 805 ft | 10 kts | 311° |
| 2026-05-09 02:52 | 29.53758 | -98.48079 | 807 ft | 13 kts | 312° |
| 2026-05-09 02:53 | 29.53820 | -98.48159 | 807 ft | 14 kts | 311° |
| 2026-05-09 02:53 | 29.53885 | -98.48241 | 809 ft | 13 kts | 312° |
| 2026-05-09 02:53 | 29.53941 | -98.48313 | 810 ft | 11 kts | 312° |
| 2026-05-09 02:53 | 29.53996 | -98.48386 | 809 ft | 14 kts | 311° |
| 2026-05-09 02:54 | 29.54061 | -98.48469 | 808 ft | 14 kts | 312° |
| 2026-05-09 02:54 | 29.54125 | -98.48552 | 808 ft | 13 kts | 311° |
| 2026-05-09 02:54 | 29.54179 | -98.48605 | 808 ft | 5 kts | 348° |
| 2026-05-09 02:54 | 29.54181 | -98.48606 | 808 ft | 0 kts | 352° |
| 2026-05-09 02:58 | 29.54191 | -98.48606 | 802 ft | 4 kts | 359° |
| 2026-05-09 02:58 | 29.54235 | -98.48580 | 808 ft | 9 kts | 38° |
| 2026-05-09 02:58 | 29.54253 | -98.48529 | 808 ft | 5 kts | 124° |
| 2026-05-09 02:59 | 29.54248 | -98.48520 | 808 ft | 0 kts | 126° |
| 2026-05-09 02:59 | 29.54151 | -98.48383 | 807 ft | 54 kts | 132° |
| 2026-05-09 02:59 | 29.53761 | -98.47892 | 802 ft | 112 kts | 131° |
| 2026-05-09 02:59 | 29.53123 | -98.47072 | 806 ft | 160 kts | 131° |
| 2026-05-09 03:00 | 29.52350 | -98.46107 | 1167 ft | 165 kts | 130° |
| 2026-05-09 03:00 | 29.51552 | -98.45109 | 1739 ft | 167 kts | 131° |
| 2026-05-09 03:00 | 29.51037 | -98.44467 | 2331 ft | 165 kts | 132° |
| 2026-05-09 03:00 | 29.50202 | -98.43427 | 2835 ft | 192 kts | 133° |
| 2026-05-09 03:01 | 29.49224 | -98.42210 | 3157 ft | 223 kts | 134° |
| 2026-05-09 03:01 | 29.48141 | -98.40787 | 3511 ft | 249 kts | 127° |
| 2026-05-09 03:01 | 29.47361 | -98.38952 | 4109 ft | 264 kts | 105° |
| 2026-05-09 03:01 | 29.47370 | -98.36815 | 4786 ft | 278 kts | 75° |
| 2026-05-09 03:02 | 29.48164 | -98.34764 | 5507 ft | 284 kts | 61° |
| 2026-05-09 03:02 | 29.49157 | -98.32791 | 6293 ft | 286 kts | 59° |
| 2026-05-09 03:02 | 29.50185 | -98.30819 | 7036 ft | 290 kts | 59° |
| 2026-05-09 03:02 | 29.51235 | -98.28803 | 7694 ft | 298 kts | 59° |
| 2026-05-09 03:03 | 29.52303 | -98.26737 | 8366 ft | 304 kts | 59° |
| 2026-05-09 03:03 | 29.53390 | -98.24625 | 9011 ft | 310 kts | 59° |
| 2026-05-09 03:03 | 29.54481 | -98.22497 | 9681 ft | 316 kts | 59° |
| 2026-05-09 03:03 | 29.55612 | -98.20288 | 10237 ft | 326 kts | 59° |
| 2026-05-09 03:04 | 29.56792 | -98.17982 | 10516 ft | 345 kts | 59° |
| 2026-05-09 03:04 | 29.58038 | -98.15543 | 10842 ft | 361 kts | 59° |
| 2026-05-09 03:04 | 29.59321 | -98.13032 | 11383 ft | 367 kts | 59° |
| 2026-05-09 03:04 | 29.60618 | -98.10489 | 12013 ft | 371 kts | 59° |
| 2026-05-09 03:05 | 29.61930 | -98.07917 | 12663 ft | 374 kts | 59° |
| 2026-05-09 03:05 | 29.63258 | -98.05312 | 13314 ft | 378 kts | 59° |
| 2026-05-09 03:05 | 29.64489 | -98.02639 | 13961 ft | 382 kts | 68° |
| 2026-05-09 03:05 | 29.65086 | -97.99639 | 14578 ft | 386 kts | 85° |
| 2026-05-09 03:06 | 29.65209 | -97.96539 | 15200 ft | 390 kts | 90° |
| 2026-05-09 03:06 | 29.65242 | -97.93433 | 15738 ft | 396 kts | 90° |
| 2026-05-09 03:06 | 29.65267 | -97.90245 | 16357 ft | 400 kts | 90° |
| 2026-05-09 03:06 | 29.65298 | -97.87022 | 16963 ft | 405 kts | 90° |
| 2026-05-09 03:07 | 29.65334 | -97.83770 | 17569 ft | 409 kts | 90° |
| 2026-05-09 03:07 | 29.65370 | -97.80481 | 18166 ft | 413 kts | 90° |
| 2026-05-09 03:07 | 29.65406 | -97.77162 | 18664 ft | 418 kts | 90° |
| 2026-05-09 03:07 | 29.65442 | -97.73795 | 19175 ft | 423 kts | 90° |
| 2026-05-09 03:08 | 29.65478 | -97.70392 | 19690 ft | 428 kts | 90° |
| 2026-05-09 03:08 | 29.65514 | -97.66954 | 20211 ft | 432 kts | 91° |
| 2026-05-09 03:08 | 29.65549 | -97.63476 | 20727 ft | 437 kts | 91° |
| 2026-05-09 03:08 | 29.65585 | -97.59965 | 21238 ft | 442 kts | 91° |
| 2026-05-09 03:09 | 29.65619 | -97.56414 | 21735 ft | 447 kts | 91° |
| 2026-05-09 03:09 | 29.65653 | -97.52864 | 22229 ft | 451 kts | 91° |
| 2026-05-09 03:09 | 29.65687 | -97.49239 | 22729 ft | 455 kts | 91° |
| 2026-05-09 03:09 | 29.65720 | -97.45584 | 23209 ft | 460 kts | 91° |
| 2026-05-09 03:10 | 29.65752 | -97.41891 | 23629 ft | 464 kts | 92° |
| 2026-05-09 03:10 | 29.65783 | -97.38160 | 24013 ft | 468 kts | 92° |
| 2026-05-09 03:10 | 29.65814 | -97.34393 | 24416 ft | 472 kts | 92° |
| 2026-05-09 03:10 | 29.65844 | -97.30603 | 24822 ft | 475 kts | 92° |
| 2026-05-09 03:11 | 29.65873 | -97.26790 | 25203 ft | 479 kts | 92° |
| 2026-05-09 03:11 | 29.65901 | -97.22944 | 25591 ft | 483 kts | 93° |
| 2026-05-09 03:11 | 29.65926 | -97.19070 | 25973 ft | 486 kts | 93° |
| 2026-05-09 03:11 | 29.65951 | -97.15160 | 26353 ft | 490 kts | 93° |
| 2026-05-09 03:12 | 29.65975 | -97.11229 | 26700 ft | 493 kts | 94° |
| 2026-05-09 03:12 | 29.65997 | -97.07272 | 27051 ft | 497 kts | 94° |
| 2026-05-09 03:12 | 29.66019 | -97.03342 | 27396 ft | 500 kts | 94° |
| 2026-05-09 03:12 | 29.66041 | -96.99326 | 27724 ft | 503 kts | 94° |
| 2026-05-09 03:13 | 29.66084 | -96.91239 | 28379 ft | 509 kts | 94° |
| 2026-05-09 03:13 | 29.66104 | -96.87155 | 28710 ft | 512 kts | 94° |
| 2026-05-09 03:13 | 29.66124 | -96.83048 | 28991 ft | 515 kts | 94° |
| 2026-05-09 03:14 | 29.66141 | -96.78910 | 29273 ft | 519 kts | 94° |
| 2026-05-09 03:14 | 29.66157 | -96.74734 | 29589 ft | 522 kts | 94° |
| 2026-05-09 03:14 | 29.66172 | -96.70539 | 29899 ft | 525 kts | 95° |
| 2026-05-09 03:14 | 29.66186 | -96.66385 | 30131 ft | 528 kts | 94° |
| 2026-05-09 03:15 | 29.66198 | -96.62146 | 30341 ft | 531 kts | 94° |
| 2026-05-09 03:15 | 29.66209 | -96.57880 | 30588 ft | 534 kts | 94° |
| 2026-05-09 03:15 | 29.66220 | -96.53608 | 30961 ft | 534 kts | 94° |
| 2026-05-09 03:15 | 29.66227 | -96.49329 | 31295 ft | 535 kts | 94° |
| 2026-05-09 03:16 | 29.66225 | -96.45043 | 31599 ft | 535 kts | 94° |
| 2026-05-09 03:16 | 29.66221 | -96.40816 | 32017 ft | 534 kts | 94° |
| 2026-05-09 03:16 | 29.66215 | -96.36543 | 32335 ft | 534 kts | 94° |
| 2026-05-09 03:16 | 29.66207 | -96.32265 | 32619 ft | 536 kts | 94° |
| 2026-05-09 03:17 | 29.66197 | -96.27977 | 32924 ft | 536 kts | 94° |
| 2026-05-09 03:17 | 29.66187 | -96.23676 | 33217 ft | 537 kts | 94° |
| 2026-05-09 03:17 | 29.66176 | -96.19383 | 33498 ft | 538 kts | 94° |
| 2026-05-09 03:17 | 29.66163 | -96.15068 | 33775 ft | 539 kts | 94° |
| 2026-05-09 03:18 | 29.66148 | -96.10758 | 34026 ft | 539 kts | 94° |
| 2026-05-09 03:18 | 29.66133 | -96.06457 | 34368 ft | 536 kts | 94° |
| 2026-05-09 03:18 | 29.66117 | -96.02191 | 34845 ft | 531 kts | 94° |
| 2026-05-09 03:18 | 29.66100 | -95.97956 | 35114 ft | 531 kts | 94° |
| 2026-05-09 03:19 | 29.66080 | -95.93752 | 35306 ft | 532 kts | 94° |
| 2026-05-09 03:19 | 29.66058 | -95.89500 | 35524 ft | 532 kts | 94° |
| 2026-05-09 03:19 | 29.66035 | -95.85245 | 35739 ft | 532 kts | 95° |
| 2026-05-09 03:19 | 29.66012 | -95.80982 | 35939 ft | 533 kts | 95° |
| 2026-05-09 03:20 | 29.65987 | -95.76727 | 36150 ft | 533 kts | 95° |
| 2026-05-09 03:20 | 29.65955 | -95.72460 | 36357 ft | 533 kts | 95° |
| 2026-05-09 03:20 | 29.65917 | -95.68198 | 36560 ft | 535 kts | 95° |
| 2026-05-09 03:20 | 29.65876 | -95.63907 | 36670 ft | 537 kts | 95° |
| 2026-05-09 03:21 | 29.65835 | -95.59605 | 36833 ft | 538 kts | 95° |
| 2026-05-09 03:21 | 29.65793 | -95.55299 | 36883 ft | 538 kts | 95° |
| 2026-05-09 03:21 | 29.65724 | -95.46703 | 36898 ft | 536 kts | 95° |
| 2026-05-09 03:22 | 29.65656 | -95.38126 | 36901 ft | 536 kts | 95° |
| 2026-05-09 03:22 | 29.66142 | -95.29565 | 36895 ft | 542 kts | 76° |
| 2026-05-09 03:23 | 29.67409 | -95.25542 | 36899 ft | 540 kts | 60° |
| 2026-05-09 03:23 | 29.69381 | -95.21894 | 36902 ft | 537 kts | 52° |
| 2026-05-09 03:23 | 29.73844 | -95.15002 | 36896 ft | 538 kts | 47° |
| 2026-05-09 03:24 | 29.78504 | -95.08224 | 36884 ft | 540 kts | 47° |
| 2026-05-09 03:24 | 29.83147 | -95.01405 | 36894 ft | 541 kts | 48° |
| 2026-05-09 03:25 | 29.87718 | -94.94586 | 36894 ft | 541 kts | 48° |
| 2026-05-09 03:25 | 29.92298 | -94.87703 | 36908 ft | 540 kts | 48° |
| 2026-05-09 03:26 | 29.96863 | -94.80829 | 36910 ft | 540 kts | 48° |
| 2026-05-09 03:26 | 30.01440 | -94.73929 | 36909 ft | 540 kts | 48° |
| 2026-05-09 03:27 | 30.06006 | -94.67038 | 36912 ft | 541 kts | 48° |
| 2026-05-09 03:27 | 30.10595 | -94.60102 | 36907 ft | 544 kts | 48° |
| 2026-05-09 03:28 | 30.15179 | -94.53159 | 36907 ft | 542 kts | 48° |
| 2026-05-09 03:28 | 30.19711 | -94.46279 | 36912 ft | 541 kts | 48° |
| 2026-05-09 03:29 | 30.24269 | -94.39351 | 36906 ft | 541 kts | 48° |
| 2026-05-09 03:29 | 30.28820 | -94.32425 | 36908 ft | 541 kts | 48° |
| 2026-05-09 03:30 | 30.33369 | -94.25488 | 36947 ft | 541 kts | 48° |
| 2026-05-09 03:30 | 30.37930 | -94.18523 | 36902 ft | 544 kts | 49° |
| 2026-05-09 03:31 | 30.42492 | -94.11540 | 36909 ft | 543 kts | 49° |
| 2026-05-09 03:31 | 30.47048 | -94.04553 | 36906 ft | 543 kts | 49° |
| 2026-05-09 03:32 | 30.51303 | -93.97359 | 36909 ft | 545 kts | 54° |
| 2026-05-09 03:32 | 30.55269 | -93.89828 | 36911 ft | 547 kts | 56° |
| 2026-05-09 03:33 | 30.59152 | -93.82247 | 36909 ft | 547 kts | 56° |
| 2026-05-09 03:33 | 30.63028 | -93.74639 | 36912 ft | 547 kts | 56° |
| 2026-05-09 03:34 | 30.66907 | -93.67028 | 36917 ft | 547 kts | 56° |
| 2026-05-09 03:34 | 30.70766 | -93.59456 | 36926 ft | 547 kts | 56° |
| 2026-05-09 03:35 | 30.74642 | -93.51839 | 36937 ft | 547 kts | 56° |
| 2026-05-09 03:35 | 30.78509 | -93.44225 | 36948 ft | 547 kts | 56° |
| 2026-05-09 03:36 | 30.82381 | -93.36586 | 36952 ft | 547 kts | 56° |
| 2026-05-09 03:36 | 30.86215 | -93.29005 | 36951 ft | 547 kts | 56° |
| 2026-05-09 03:37 | 30.90071 | -93.21368 | 36948 ft | 547 kts | 56° |
| 2026-05-09 03:37 | 30.93932 | -93.13705 | 36935 ft | 548 kts | 56° |
| 2026-05-09 03:38 | 30.97787 | -93.06038 | 36933 ft | 549 kts | 57° |
| 2026-05-09 03:38 | 31.01650 | -92.98340 | 36934 ft | 549 kts | 57° |
| 2026-05-09 03:39 | 31.05502 | -92.90649 | 36935 ft | 549 kts | 57° |
| 2026-05-09 03:39 | 31.09328 | -92.82994 | 36938 ft | 549 kts | 57° |
| 2026-05-09 03:40 | 31.13175 | -92.75284 | 36942 ft | 549 kts | 57° |
| 2026-05-09 03:40 | 31.17018 | -92.67564 | 36949 ft | 549 kts | 57° |
| 2026-05-09 03:41 | 31.20850 | -92.59849 | 36949 ft | 548 kts | 57° |
| 2026-05-09 03:41 | 31.24679 | -92.52129 | 36960 ft | 550 kts | 57° |
| 2026-05-09 03:42 | 31.28415 | -92.44298 | 36951 ft | 552 kts | 59° |
| 2026-05-09 03:42 | 31.32016 | -92.36360 | 36935 ft | 553 kts | 59° |
| 2026-05-09 03:43 | 31.35582 | -92.28454 | 36920 ft | 553 kts | 59° |
| 2026-05-09 03:43 | 31.39176 | -92.20519 | 36935 ft | 552 kts | 59° |
| 2026-05-09 03:44 | 31.42778 | -92.12580 | 36935 ft | 551 kts | 59° |
| 2026-05-09 03:44 | 31.46373 | -92.04647 | 36934 ft | 551 kts | 59° |
| 2026-05-09 03:45 | 31.49964 | -91.96705 | 36939 ft | 552 kts | 59° |
| 2026-05-09 03:45 | 31.53555 | -91.88744 | 36931 ft | 553 kts | 59° |
| 2026-05-09 03:46 | 31.56541 | -91.82111 | 36940 ft | 553 kts | 59° |
| 2026-05-09 03:46 | 31.60126 | -91.74131 | 36943 ft | 553 kts | 59° |
| 2026-05-09 03:47 | 31.63712 | -91.66132 | 36950 ft | 553 kts | 59° |
| 2026-05-09 03:47 | 31.67266 | -91.58185 | 36946 ft | 553 kts | 59° |
| 2026-05-09 03:48 | 31.70839 | -91.50181 | 36949 ft | 553 kts | 59° |
| 2026-05-09 03:48 | 31.74407 | -91.42169 | 36953 ft | 552 kts | 59° |
| 2026-05-09 03:49 | 31.77965 | -91.34164 | 36957 ft | 552 kts | 59° |
| 2026-05-09 03:49 | 31.81516 | -91.26157 | 36954 ft | 553 kts | 59° |
| 2026-05-09 03:50 | 31.85084 | -91.18093 | 36958 ft | 555 kts | 59° |
| 2026-05-09 03:50 | 31.88616 | -91.10094 | 36954 ft | 554 kts | 60° |
| 2026-05-09 03:51 | 31.92160 | -91.02048 | 36950 ft | 553 kts | 60° |
| 2026-05-09 03:51 | 31.95702 | -90.93991 | 36950 ft | 553 kts | 60° |
| 2026-05-09 03:52 | 31.99239 | -90.85926 | 36945 ft | 553 kts | 60° |
| 2026-05-09 03:52 | 32.02766 | -90.77867 | 36948 ft | 553 kts | 60° |
| 2026-05-09 03:53 | 32.06263 | -90.69858 | 36946 ft | 552 kts | 60° |
| 2026-05-09 03:53 | 32.09773 | -90.61804 | 36957 ft | 553 kts | 60° |
| 2026-05-09 03:54 | 32.13303 | -90.53687 | 36946 ft | 556 kts | 60° |
| 2026-05-09 03:54 | 32.16835 | -90.45544 | 36947 ft | 557 kts | 60° |
| 2026-05-09 03:55 | 32.20339 | -90.37445 | 36946 ft | 557 kts | 60° |
| 2026-05-09 03:55 | 32.23862 | -90.29286 | 36953 ft | 556 kts | 61° |
| 2026-05-09 03:56 | 32.27366 | -90.21151 | 36956 ft | 555 kts | 61° |
| 2026-05-09 03:56 | 32.30846 | -90.13055 | 36966 ft | 555 kts | 61° |
| 2026-05-09 03:57 | 32.34343 | -90.04902 | 36964 ft | 555 kts | 61° |
| 2026-05-09 03:57 | 32.37845 | -89.96720 | 36937 ft | 557 kts | 61° |
| 2026-05-09 03:58 | 32.41317 | -89.88587 | 36942 ft | 557 kts | 61° |
| 2026-05-09 03:58 | 32.44804 | -89.80402 | 36942 ft | 556 kts | 61° |
| 2026-05-09 03:59 | 32.48282 | -89.72217 | 36944 ft | 556 kts | 61° |
| 2026-05-09 03:59 | 32.51764 | -89.64005 | 36951 ft | 556 kts | 61° |
| 2026-05-09 04:00 | 32.55232 | -89.55808 | 36956 ft | 556 kts | 61° |
| 2026-05-09 04:00 | 32.58676 | -89.47648 | 36962 ft | 557 kts | 61° |
| 2026-05-09 04:01 | 32.62137 | -89.39428 | 37023 ft | 557 kts | 62° |
| 2026-05-09 04:01 | 32.64816 | -89.30766 | 36966 ft | 561 kts | 71° |
| 2026-05-09 04:02 | 32.67203 | -89.21912 | 36962 ft | 563 kts | 73° |
| 2026-05-09 04:02 | 32.69493 | -89.13089 | 36969 ft | 562 kts | 73° |
| 2026-05-09 04:03 | 32.71780 | -89.04221 | 36978 ft | 562 kts | 73° |
| 2026-05-09 04:03 | 32.74068 | -88.95354 | 36993 ft | 562 kts | 73° |
| 2026-05-09 04:04 | 32.76358 | -88.86478 | 36989 ft | 562 kts | 73° |
| 2026-05-09 04:04 | 32.78641 | -88.77602 | 36988 ft | 562 kts | 73° |
| 2026-05-09 04:05 | 32.80919 | -88.68716 | 36987 ft | 562 kts | 73° |
| 2026-05-09 04:05 | 32.83191 | -88.59823 | 36981 ft | 562 kts | 73° |
| 2026-05-09 04:06 | 32.85455 | -88.50932 | 36974 ft | 562 kts | 73° |
| 2026-05-09 04:06 | 32.87698 | -88.42093 | 36974 ft | 562 kts | 73° |
| 2026-05-09 04:07 | 32.89954 | -88.33180 | 36974 ft | 563 kts | 73° |
| 2026-05-09 04:07 | 32.92211 | -88.24231 | 36975 ft | 564 kts | 73° |
| 2026-05-09 04:08 | 32.94463 | -88.15269 | 36964 ft | 564 kts | 73° |
| 2026-05-09 04:08 | 32.96690 | -88.06377 | 36970 ft | 564 kts | 73° |
| 2026-05-09 04:09 | 32.98924 | -87.97425 | 36966 ft | 563 kts | 73° |
| 2026-05-09 04:09 | 33.01153 | -87.88466 | 36966 ft | 563 kts | 73° |
| 2026-05-09 04:10 | 33.03374 | -87.79507 | 36965 ft | 563 kts | 73° |
| 2026-05-09 04:10 | 33.05588 | -87.70546 | 36976 ft | 563 kts | 73° |
| 2026-05-09 04:11 | 33.07791 | -87.61601 | 36986 ft | 562 kts | 73° |
| 2026-05-09 04:11 | 33.09986 | -87.52660 | 36988 ft | 561 kts | 73° |
| 2026-05-09 04:12 | 33.11920 | -87.43721 | 36985 ft | 560 kts | 82° |
| 2026-05-09 04:12 | 33.13341 | -87.34574 | 36992 ft | 561 kts | 81° |
| 2026-05-09 04:13 | 33.14705 | -87.25383 | 36958 ft | 564 kts | 81° |
| 2026-05-09 04:13 | 33.16058 | -87.16142 | 36972 ft | 565 kts | 81° |
| 2026-05-09 04:14 | 33.17403 | -87.06888 | 36982 ft | 565 kts | 81° |
| 2026-05-09 04:14 | 33.18738 | -86.97649 | 36992 ft | 565 kts | 82° |
| 2026-05-09 04:15 | 33.20055 | -86.88479 | 36989 ft | 564 kts | 81° |
| 2026-05-09 04:15 | 33.21375 | -86.79245 | 36991 ft | 563 kts | 82° |
| 2026-05-09 04:16 | 33.22685 | -86.70025 | 36989 ft | 563 kts | 82° |
| 2026-05-09 04:16 | 33.23989 | -86.60804 | 36986 ft | 563 kts | 82° |
| 2026-05-09 04:17 | 33.25286 | -86.51573 | 36992 ft | 562 kts | 81° |
| 2026-05-09 04:17 | 33.26571 | -86.42378 | 37006 ft | 559 kts | 81° |
| 2026-05-09 04:18 | 33.27837 | -86.33272 | 37009 ft | 559 kts | 81° |
| 2026-05-09 04:18 | 33.29107 | -86.24085 | 36987 ft | 559 kts | 81° |
| 2026-05-09 04:19 | 33.30369 | -86.14900 | 36997 ft | 559 kts | 81° |
| 2026-05-09 04:19 | 33.31622 | -86.05731 | 36991 ft | 559 kts | 81° |
| 2026-05-09 04:20 | 33.32869 | -85.96559 | 36986 ft | 559 kts | 81° |
| 2026-05-09 04:20 | 33.34110 | -85.87374 | 36993 ft | 559 kts | 81° |
| 2026-05-09 04:21 | 33.35334 | -85.78262 | 36997 ft | 559 kts | 81° |
| 2026-05-09 04:22 | 33.37171 | -85.64496 | 36997 ft | 559 kts | 81° |
| 2026-05-09 04:22 | 33.38387 | -85.55311 | 37004 ft | 559 kts | 81° |
| 2026-05-09 04:23 | 33.39597 | -85.46123 | 37001 ft | 559 kts | 81° |
| 2026-05-09 04:23 | 33.40801 | -85.36924 | 37000 ft | 558 kts | 82° |
| 2026-05-09 04:24 | 33.41995 | -85.27744 | 37028 ft | 558 kts | 82° |
| 2026-05-09 04:24 | 33.43175 | -85.18622 | 37033 ft | 557 kts | 82° |
| 2026-05-09 04:25 | 33.44356 | -85.09437 | 37032 ft | 558 kts | 82° |
| 2026-05-09 04:25 | 33.45529 | -85.00257 | 37033 ft | 558 kts | 82° |
| 2026-05-09 04:26 | 33.46695 | -84.91075 | 37010 ft | 557 kts | 82° |
| 2026-05-09 04:26 | 33.47856 | -84.81885 | 37012 ft | 557 kts | 82° |
| 2026-05-09 04:27 | 33.49009 | -84.72695 | 37013 ft | 558 kts | 82° |
| 2026-05-09 04:27 | 33.50154 | -84.63509 | 37019 ft | 557 kts | 81° |
| 2026-05-09 04:28 | 33.51285 | -84.54384 | 37026 ft | 557 kts | 81° |
| 2026-05-09 04:28 | 33.52417 | -84.45198 | 37026 ft | 557 kts | 81° |
| 2026-05-09 04:29 | 33.53542 | -84.36005 | 37044 ft | 557 kts | 81° |
| 2026-05-09 04:29 | 33.54658 | -84.26826 | 37038 ft | 557 kts | 81° |
| 2026-05-09 04:30 | 33.55769 | -84.17639 | 37041 ft | 558 kts | 82° |
| 2026-05-09 04:30 | 33.56879 | -84.08395 | 37014 ft | 561 kts | 82° |
| 2026-05-09 04:31 | 33.57986 | -83.99123 | 37017 ft | 561 kts | 82° |
| 2026-05-09 04:31 | 33.59162 | -83.89878 | 37003 ft | 560 kts | 75° |
| 2026-05-09 04:32 | 33.61217 | -83.80947 | 37017 ft | 556 kts | 71° |
| 2026-05-09 04:32 | 33.63418 | -83.72063 | 37018 ft | 555 kts | 71° |
| 2026-05-09 04:33 | 33.65604 | -83.63181 | 37018 ft | 555 kts | 71° |
| 2026-05-09 04:33 | 33.68513 | -83.54684 | 37019 ft | 545 kts | 55° |
| 2026-05-09 04:34 | 33.72294 | -83.46878 | 37019 ft | 544 kts | 53° |
| 2026-05-09 04:34 | 33.76138 | -83.39019 | 37020 ft | 544 kts | 53° |
| 2026-05-09 04:35 | 33.79961 | -83.31158 | 37028 ft | 545 kts | 54° |
| 2026-05-09 04:35 | 33.83142 | -83.24605 | 37021 ft | 545 kts | 53° |
| 2026-05-09 04:36 | 33.87235 | -83.16957 | 37028 ft | 543 kts | 50° |
| 2026-05-09 04:36 | 33.92065 | -83.08126 | 37023 ft | 542 kts | 50° |
| 2026-05-09 04:37 | 33.95528 | -83.01760 | 37028 ft | 542 kts | 50° |
| 2026-05-09 04:37 | 33.99625 | -82.94205 | 37032 ft | 542 kts | 50° |
| 2026-05-09 04:38 | 34.03748 | -82.86582 | 37047 ft | 543 kts | 50° |
| 2026-05-09 04:38 | 34.07881 | -82.78923 | 37035 ft | 545 kts | 51° |
| 2026-05-09 04:39 | 34.12009 | -82.71253 | 36895 ft | 544 kts | 51° |
| 2026-05-09 04:39 | 34.14066 | -82.67424 | 36631 ft | 543 kts | 51° |
| 2026-05-09 04:39 | 34.16123 | -82.63596 | 36259 ft | 543 kts | 51° |
| 2026-05-09 04:39 | 34.18181 | -82.59759 | 35890 ft | 544 kts | 51° |
| 2026-05-09 04:40 | 34.20239 | -82.55919 | 35518 ft | 544 kts | 52° |
| 2026-05-09 04:40 | 34.22298 | -82.52072 | 35158 ft | 545 kts | 52° |
| 2026-05-09 04:40 | 34.24358 | -82.48219 | 34711 ft | 546 kts | 52° |
| 2026-05-09 04:40 | 34.26419 | -82.44362 | 34165 ft | 547 kts | 53° |
| 2026-05-09 04:41 | 34.28490 | -82.40481 | 33482 ft | 550 kts | 53° |
| 2026-05-09 04:41 | 34.30538 | -82.36636 | 32705 ft | 553 kts | 53° |
| 2026-05-09 04:41 | 34.32623 | -82.32715 | 31948 ft | 555 kts | 54° |
| 2026-05-09 04:41 | 34.34716 | -82.28775 | 31131 ft | 559 kts | 54° |
| 2026-05-09 04:42 | 34.36823 | -82.24805 | 30410 ft | 559 kts | 54° |
| 2026-05-09 04:42 | 34.38920 | -82.20846 | 29635 ft | 558 kts | 54° |
| 2026-05-09 04:42 | 34.41008 | -82.16900 | 28816 ft | 556 kts | 54° |
| 2026-05-09 04:42 | 34.43096 | -82.12950 | 28094 ft | 553 kts | 54° |
| 2026-05-09 04:43 | 34.45160 | -82.09039 | 27458 ft | 548 kts | 54° |
| 2026-05-09 04:43 | 34.47206 | -82.05161 | 26837 ft | 543 kts | 54° |
| 2026-05-09 04:43 | 34.49232 | -82.01316 | 26263 ft | 538 kts | 53° |
| 2026-05-09 04:43 | 34.51202 | -81.97573 | 25691 ft | 532 kts | 53° |
| 2026-05-09 04:44 | 34.53181 | -81.93809 | 25218 ft | 523 kts | 53° |
| 2026-05-09 04:44 | 34.55122 | -81.90112 | 24774 ft | 515 kts | 53° |
| 2026-05-09 04:44 | 34.57024 | -81.86487 | 24433 ft | 504 kts | 52° |
| 2026-05-09 04:44 | 34.58893 | -81.82920 | 24143 ft | 492 kts | 52° |
| 2026-05-09 04:45 | 34.60706 | -81.79457 | 23850 ft | 481 kts | 52° |
| 2026-05-09 04:45 | 34.62488 | -81.76053 | 23392 ft | 475 kts | 52° |
| 2026-05-09 04:45 | 34.64244 | -81.72697 | 22855 ft | 466 kts | 52° |
| 2026-05-09 04:45 | 34.65958 | -81.69417 | 22326 ft | 454 kts | 52° |
| 2026-05-09 04:46 | 34.67629 | -81.66214 | 21817 ft | 443 kts | 52° |
| 2026-05-09 04:46 | 34.69261 | -81.63086 | 21308 ft | 434 kts | 53° |
| 2026-05-09 04:46 | 34.70837 | -81.60063 | 20847 ft | 424 kts | 53° |
| 2026-05-09 04:46 | 34.72402 | -81.57058 | 20371 ft | 415 kts | 53° |
| 2026-05-09 04:47 | 34.73930 | -81.54123 | 19889 ft | 407 kts | 54° |
| 2026-05-09 04:47 | 34.75533 | -81.51343 | 19504 ft | 392 kts | 45° |
| 2026-05-09 04:47 | 34.77321 | -81.48911 | 19090 ft | 382 kts | 42° |
| 2026-05-09 04:47 | 34.79140 | -81.46581 | 18522 ft | 379 kts | 42° |
| 2026-05-09 04:48 | 34.80957 | -81.44275 | 17938 ft | 375 kts | 42° |
| 2026-05-09 04:48 | 34.82751 | -81.41990 | 17375 ft | 370 kts | 42° |
| 2026-05-09 04:48 | 34.84520 | -81.39731 | 16794 ft | 366 kts | 42° |
| 2026-05-09 04:48 | 34.86247 | -81.37521 | 16241 ft | 362 kts | 42° |
| 2026-05-09 04:49 | 34.87973 | -81.35309 | 15653 ft | 358 kts | 42° |
| 2026-05-09 04:49 | 34.89673 | -81.33127 | 15119 ft | 353 kts | 42° |
| 2026-05-09 04:49 | 34.91355 | -81.30967 | 14677 ft | 350 kts | 42° |
| 2026-05-09 04:49 | 34.93024 | -81.28822 | 14259 ft | 347 kts | 42° |
| 2026-05-09 04:50 | 34.94682 | -81.26690 | 13880 ft | 344 kts | 43° |
| 2026-05-09 04:50 | 34.96313 | -81.24590 | 13379 ft | 338 kts | 43° |
| 2026-05-09 04:50 | 34.97914 | -81.22526 | 12968 ft | 334 kts | 43° |
| 2026-05-09 04:50 | 34.99512 | -81.20468 | 12580 ft | 334 kts | 43° |
| 2026-05-09 04:51 | 35.01102 | -81.18418 | 12177 ft | 332 kts | 43° |
| 2026-05-09 04:51 | 35.02681 | -81.16381 | 11790 ft | 329 kts | 43° |
| 2026-05-09 04:51 | 35.04250 | -81.14355 | 11388 ft | 327 kts | 43° |
| 2026-05-09 04:51 | 35.05805 | -81.12344 | 11002 ft | 325 kts | 43° |
| 2026-05-09 04:52 | 35.07348 | -81.10346 | 10752 ft | 320 kts | 43° |
| 2026-05-09 04:52 | 35.08874 | -81.08378 | 10568 ft | 319 kts | 42° |
| 2026-05-09 04:52 | 35.10592 | -81.06749 | 10422 ft | 304 kts | 21° |
| 2026-05-09 04:52 | 35.12551 | -81.06113 | 10230 ft | 284 kts | 357° |
| 2026-05-09 04:53 | 35.14485 | -81.06152 | 10037 ft | 273 kts | 350° |
| 2026-05-09 04:53 | 35.16331 | -81.06318 | 9989 ft | 259 kts | 349° |
| 2026-05-09 04:53 | 35.18082 | -81.06490 | 9929 ft | 247 kts | 349° |
| 2026-05-09 04:53 | 35.19787 | -81.06657 | 9605 ft | 245 kts | 349° |
| 2026-05-09 04:54 | 35.21467 | -81.06821 | 9251 ft | 246 kts | 350° |
| 2026-05-09 04:54 | 35.23174 | -81.06981 | 9063 ft | 246 kts | 351° |
| 2026-05-09 04:54 | 35.24878 | -81.07137 | 8879 ft | 245 kts | 351° |
| 2026-05-09 04:54 | 35.26578 | -81.07291 | 8702 ft | 245 kts | 351° |
| 2026-05-09 04:55 | 35.28274 | -81.07444 | 8517 ft | 244 kts | 351° |
| 2026-05-09 04:55 | 35.29965 | -81.07595 | 8329 ft | 243 kts | 351° |
| 2026-05-09 04:55 | 35.31651 | -81.07744 | 8070 ft | 242 kts | 352° |
| 2026-05-09 04:55 | 35.33333 | -81.07890 | 7815 ft | 241 kts | 352° |
| 2026-05-09 04:56 | 35.35004 | -81.08048 | 7569 ft | 241 kts | 352° |
| 2026-05-09 04:56 | 35.36669 | -81.08222 | 7325 ft | 240 kts | 352° |
| 2026-05-09 04:56 | 35.38337 | -81.08405 | 6979 ft | 241 kts | 352° |
| 2026-05-09 04:56 | 35.40014 | -81.08593 | 6624 ft | 243 kts | 352° |
| 2026-05-09 04:57 | 35.41705 | -81.08784 | 6258 ft | 245 kts | 352° |
| 2026-05-09 04:57 | 35.43392 | -81.08971 | 6019 ft | 240 kts | 352° |
| 2026-05-09 04:57 | 35.45026 | -81.09148 | 6015 ft | 228 kts | 352° |
| 2026-05-09 04:57 | 35.46545 | -81.09310 | 5993 ft | 213 kts | 352° |
| 2026-05-09 04:58 | 35.48023 | -81.09292 | 5986 ft | 214 kts | 7° |
| 2026-05-09 04:58 | 35.49400 | -81.08663 | 5981 ft | 217 kts | 32° |
| 2026-05-09 04:58 | 35.50423 | -81.07298 | 5982 ft | 217 kts | 64° |